sensor_id;sensor_type;location;lat;lon;timestamp;P1;durP1;ratioP1;P2;durP2;ratioP2
13311;SDS011;34033;48.672;9.376;2022-10-16T00:01:16;1.80;;;1.70;;
13311;SDS011;34033;48.672;9.376;2022-10-16T00:03:44;1.93;;;1.80;;
13311;SDS011;34033;48.672;9.376;2022-10-16T00:06:10;1.93;;;1.77;;
13311;SDS011;34033;48.672;9.376;2022-10-16T00:08:37;2.40;;;1.97;;
13311;SDS011;34033;48.672;9.376;2022-10-16T00:11:07;4.93;;;1.70;;
13311;SDS011;34033;48.672;9.376;2022-10-16T00:13:35;1.57;;;1.47;;
13311;SDS011;34033;48.672;9.376;2022-10-16T00:16:02;2.03;;;1.87;;
13311;SDS011;34033;48.672;9.376;2022-10-16T00:18:28;2.03;;;1.93;;
13311;SDS011;34033;48.672;9.376;2022-10-16T00:20:54;1.90;;;1.80;;
13311;SDS011;34033;48.672;9.376;2022-10-16T00:23:20;1.77;;;1.67;;
13311;SDS011;34033;48.672;9.376;2022-10-16T00:26:08;4.27;;;1.93;;
13311;SDS011;34033;48.672;9.376;2022-10-16T00:28:33;8.03;;;1.73;;
13311;SDS011;34033;48.672;9.376;2022-10-16T00:30:59;2.00;;;1.80;;
13311;SDS011;34033;48.672;9.376;2022-10-16T00:33:28;4.53;;;1.50;;
13311;SDS011;34033;48.672;9.376;2022-10-16T00:35:53;2.13;;;2.00;;
13311;SDS011;34033;48.672;9.376;2022-10-16T00:38:18;3.13;;;1.97;;
13311;SDS011;34033;48.672;9.376;2022-10-16T00:40:44;2.17;;;2.03;;
13311;SDS011;34033;48.672;9.376;2022-10-16T00:48:36;2.73;;;1.90;;
13311;SDS011;34033;48.672;9.376;2022-10-16T00:51:01;1.83;;;1.73;;
13311;SDS011;34033;48.672;9.376;2022-10-16T00:53:27;1.70;;;1.60;;
13311;SDS011;34033;48.672;9.376;2022-10-16T00:55:53;2.00;;;1.90;;
13311;SDS011;34033;48.672;9.376;2022-10-16T00:58:19;1.90;;;1.80;;
13311;SDS011;34033;48.672;9.376;2022-10-16T01:00:45;4.77;;;2.27;;
13311;SDS011;34033;48.672;9.376;2022-10-16T01:03:24;2.10;;;1.90;;
13311;SDS011;34033;48.672;9.376;2022-10-16T01:08:32;2.17;;;1.93;;
13311;SDS011;34033;48.672;9.376;2022-10-16T01:11:07;1.90;;;1.77;;
13311;SDS011;34033;48.672;9.376;2022-10-16T01:13:43;1.90;;;1.80;;
13311;SDS011;34033;48.672;9.376;2022-10-16T01:16:37;3.70;;;1.90;;
13311;SDS011;34033;48.672;9.376;2022-10-16T01:21:36;1.90;;;1.80;;
13311;SDS011;34033;48.672;9.376;2022-10-16T01:24:28;2.30;;;1.90;;
13311;SDS011;34033;48.672;9.376;2022-10-16T01:29:37;1.73;;;1.63;;
13311;SDS011;34033;48.672;9.376;2022-10-16T01:32:11;2.03;;;1.93;;
13311;SDS011;34033;48.672;9.376;2022-10-16T01:34:48;2.23;;;2.03;;
13311;SDS011;34033;48.672;9.376;2022-10-16T01:37:22;2.40;;;2.20;;
13311;SDS011;34033;48.672;9.376;2022-10-16T01:39:58;1.90;;;1.80;;
13311;SDS011;34033;48.672;9.376;2022-10-16T01:42:27;2.30;;;2.10;;
13311;SDS011;34033;48.672;9.376;2022-10-16T01:44:56;2.13;;;1.93;;
13311;SDS011;34033;48.672;9.376;2022-10-16T01:47:25;4.07;;;1.80;;
13311;SDS011;34033;48.672;9.376;2022-10-16T01:49:52;2.87;;;1.97;;
13311;SDS011;34033;48.672;9.376;2022-10-16T01:52:21;2.00;;;1.90;;
13311;SDS011;34033;48.672;9.376;2022-10-16T01:54:51;1.80;;;1.70;;
13311;SDS011;34033;48.672;9.376;2022-10-16T01:57:20;1.70;;;1.60;;
13311;SDS011;34033;48.672;9.376;2022-10-16T01:59:50;2.17;;;1.97;;
13311;SDS011;34033;48.672;9.376;2022-10-16T02:02:19;2.40;;;1.90;;
13311;SDS011;34033;48.672;9.376;2022-10-16T02:04:48;2.00;;;1.90;;
13311;SDS011;34033;48.672;9.376;2022-10-16T02:07:19;3.57;;;1.93;;
13311;SDS011;34033;48.672;9.376;2022-10-16T02:09:45;2.20;;;1.80;;
13311;SDS011;34033;48.672;9.376;2022-10-16T02:12:13;2.30;;;1.90;;
13311;SDS011;34033;48.672;9.376;2022-10-16T02:14:51;2.57;;;1.80;;
13311;SDS011;34033;48.672;9.376;2022-10-16T02:17:18;1.60;;;1.50;;
13311;SDS011;34033;48.672;9.376;2022-10-16T02:19:44;4.20;;;2.10;;
13311;SDS011;34033;48.672;9.376;2022-10-16T02:22:15;3.97;;;1.70;;
13311;SDS011;34033;48.672;9.376;2022-10-16T02:27:26;2.07;;;1.70;;
13311;SDS011;34033;48.672;9.376;2022-10-16T02:30:00;2.23;;;1.83;;
13311;SDS011;34033;48.672;9.376;2022-10-16T02:32:38;4.43;;;1.60;;
13311;SDS011;34033;48.672;9.376;2022-10-16T02:35:07;3.13;;;1.60;;
13311;SDS011;34033;48.672;9.376;2022-10-16T02:37:33;1.60;;;1.50;;
13311;SDS011;34033;48.672;9.376;2022-10-16T02:39:59;1.70;;;1.60;;
13311;SDS011;34033;48.672;9.376;2022-10-16T02:42:29;1.93;;;1.70;;
13311;SDS011;34033;48.672;9.376;2022-10-16T02:44:59;1.70;;;1.60;;
13311;SDS011;34033;48.672;9.376;2022-10-16T02:47:24;2.73;;;1.80;;
13311;SDS011;34033;48.672;9.376;2022-10-16T02:49:50;2.10;;;1.90;;
13311;SDS011;34033;48.672;9.376;2022-10-16T02:52:15;1.97;;;1.60;;
13311;SDS011;34033;48.672;9.376;2022-10-16T02:54:40;1.80;;;1.70;;
13311;SDS011;34033;48.672;9.376;2022-10-16T02:57:06;1.77;;;1.67;;
13311;SDS011;34033;48.672;9.376;2022-10-16T02:59:31;1.80;;;1.70;;
13311;SDS011;34033;48.672;9.376;2022-10-16T03:01:56;2.30;;;1.70;;
13311;SDS011;34033;48.672;9.376;2022-10-16T03:04:22;2.53;;;1.70;;
13311;SDS011;34033;48.672;9.376;2022-10-16T03:06:47;2.60;;;1.43;;
13311;SDS011;34033;48.672;9.376;2022-10-16T03:09:12;2.57;;;1.60;;
13311;SDS011;34033;48.672;9.376;2022-10-16T03:11:38;1.73;;;1.60;;
13311;SDS011;34033;48.672;9.376;2022-10-16T03:14:03;5.43;;;1.70;;
13311;SDS011;34033;48.672;9.376;2022-10-16T03:16:28;1.70;;;1.60;;
13311;SDS011;34033;48.672;9.376;2022-10-16T03:18:54;1.77;;;1.67;;
13311;SDS011;34033;48.672;9.376;2022-10-16T03:21:19;1.73;;;1.63;;
13311;SDS011;34033;48.672;9.376;2022-10-16T03:23:44;1.60;;;1.50;;
13311;SDS011;34033;48.672;9.376;2022-10-16T03:26:10;1.70;;;1.60;;
13311;SDS011;34033;48.672;9.376;2022-10-16T03:28:35;1.43;;;1.33;;
13311;SDS011;34033;48.672;9.376;2022-10-16T03:31:00;1.50;;;1.40;;
13311;SDS011;34033;48.672;9.376;2022-10-16T03:33:26;6.70;;;2.10;;
13311;SDS011;34033;48.672;9.376;2022-10-16T03:35:52;2.20;;;1.47;;
13311;SDS011;34033;48.672;9.376;2022-10-16T03:38:18;1.87;;;1.77;;
13311;SDS011;34033;48.672;9.376;2022-10-16T03:40:44;1.70;;;1.60;;
13311;SDS011;34033;48.672;9.376;2022-10-16T03:43:09;1.50;;;1.40;;
13311;SDS011;34033;48.672;9.376;2022-10-16T03:45:34;1.97;;;1.40;;
13311;SDS011;34033;48.672;9.376;2022-10-16T03:48:00;1.50;;;1.40;;
13311;SDS011;34033;48.672;9.376;2022-10-16T03:50:25;2.53;;;1.53;;
13311;SDS011;34033;48.672;9.376;2022-10-16T03:52:50;1.60;;;1.50;;
13311;SDS011;34033;48.672;9.376;2022-10-16T03:55:16;5.93;;;1.80;;
13311;SDS011;34033;48.672;9.376;2022-10-16T03:57:42;1.63;;;1.30;;
13311;SDS011;34033;48.672;9.376;2022-10-16T04:00:07;1.40;;;1.30;;
13311;SDS011;34033;48.672;9.376;2022-10-16T04:02:33;1.70;;;1.60;;
13311;SDS011;34033;48.672;9.376;2022-10-16T04:04:58;1.73;;;1.63;;
13311;SDS011;34033;48.672;9.376;2022-10-16T04:07:23;3.20;;;1.70;;
13311;SDS011;34033;48.672;9.376;2022-10-16T04:09:49;1.20;;;1.20;;
13311;SDS011;34033;48.672;9.376;2022-10-16T04:12:16;2.70;;;1.60;;
13311;SDS011;34033;48.672;9.376;2022-10-16T04:14:42;2.57;;;1.40;;
13311;SDS011;34033;48.672;9.376;2022-10-16T04:17:07;1.60;;;1.50;;
13311;SDS011;34033;48.672;9.376;2022-10-16T04:19:32;2.73;;;1.73;;
13311;SDS011;34033;48.672;9.376;2022-10-16T04:21:58;2.00;;;1.80;;
13311;SDS011;34033;48.672;9.376;2022-10-16T04:24:23;3.80;;;1.60;;
13311;SDS011;34033;48.672;9.376;2022-10-16T04:26:48;1.80;;;1.70;;
13311;SDS011;34033;48.672;9.376;2022-10-16T04:29:14;3.90;;;2.20;;
13311;SDS011;34033;48.672;9.376;2022-10-16T04:31:39;2.37;;;2.10;;
13311;SDS011;34033;48.672;9.376;2022-10-16T04:34:05;8.07;;;2.00;;
13311;SDS011;34033;48.672;9.376;2022-10-16T04:36:30;2.10;;;1.90;;
13311;SDS011;34033;48.672;9.376;2022-10-16T04:38:55;2.00;;;1.80;;
13311;SDS011;34033;48.672;9.376;2022-10-16T04:41:21;3.70;;;2.07;;
13311;SDS011;34033;48.672;9.376;2022-10-16T04:43:46;3.00;;;1.80;;
13311;SDS011;34033;48.672;9.376;2022-10-16T04:46:12;1.90;;;1.80;;
13311;SDS011;34033;48.672;9.376;2022-10-16T04:48:37;1.90;;;1.80;;
13311;SDS011;34033;48.672;9.376;2022-10-16T04:51:02;3.30;;;1.90;;
13311;SDS011;34033;48.672;9.376;2022-10-16T04:53:28;4.37;;;1.70;;
13311;SDS011;34033;48.672;9.376;2022-10-16T04:55:53;1.90;;;1.80;;
13311;SDS011;34033;48.672;9.376;2022-10-16T04:58:19;6.40;;;1.87;;
13311;SDS011;34033;48.672;9.376;2022-10-16T05:00:44;2.53;;;1.90;;
13311;SDS011;34033;48.672;9.376;2022-10-16T05:03:11;3.07;;;1.90;;
13311;SDS011;34033;48.672;9.376;2022-10-16T05:05:37;6.13;;;2.03;;
13311;SDS011;34033;48.672;9.376;2022-10-16T05:08:08;2.27;;;2.00;;
13311;SDS011;34033;48.672;9.376;2022-10-16T05:10:33;1.97;;;1.60;;
13311;SDS011;34033;48.672;9.376;2022-10-16T05:12:59;1.90;;;1.80;;
13311;SDS011;34033;48.672;9.376;2022-10-16T05:15:24;1.70;;;1.60;;
13311;SDS011;34033;48.672;9.376;2022-10-16T05:17:51;1.80;;;1.70;;
13311;SDS011;34033;48.672;9.376;2022-10-16T05:20:18;1.90;;;1.80;;
13311;SDS011;34033;48.672;9.376;2022-10-16T05:22:43;2.07;;;1.77;;
13311;SDS011;34033;48.672;9.376;2022-10-16T05:25:08;3.17;;;1.80;;
13311;SDS011;34033;48.672;9.376;2022-10-16T05:27:34;1.97;;;1.77;;
13311;SDS011;34033;48.672;9.376;2022-10-16T05:29:59;1.77;;;1.67;;
13311;SDS011;34033;48.672;9.376;2022-10-16T05:32:24;1.47;;;1.37;;
13311;SDS011;34033;48.672;9.376;2022-10-16T05:34:50;1.60;;;1.50;;
13311;SDS011;34033;48.672;9.376;2022-10-16T05:37:16;1.67;;;1.57;;
13311;SDS011;34033;48.672;9.376;2022-10-16T05:39:41;1.70;;;1.60;;
13311;SDS011;34033;48.672;9.376;2022-10-16T05:42:06;1.73;;;1.63;;
13311;SDS011;34033;48.672;9.376;2022-10-16T05:44:32;2.07;;;1.63;;
13311;SDS011;34033;48.672;9.376;2022-10-16T05:46:57;1.40;;;1.40;;
13311;SDS011;34033;48.672;9.376;2022-10-16T05:49:23;1.97;;;1.83;;
13311;SDS011;34033;48.672;9.376;2022-10-16T05:51:48;1.97;;;1.70;;
13311;SDS011;34033;48.672;9.376;2022-10-16T05:54:13;4.23;;;1.50;;
13311;SDS011;34033;48.672;9.376;2022-10-16T05:56:39;1.57;;;1.50;;
13311;SDS011;34033;48.672;9.376;2022-10-16T05:59:04;2.80;;;1.47;;
13311;SDS011;34033;48.672;9.376;2022-10-16T06:01:30;2.20;;;1.90;;
13311;SDS011;34033;48.672;9.376;2022-10-16T06:03:56;1.77;;;1.67;;
13311;SDS011;34033;48.672;9.376;2022-10-16T06:06:23;1.90;;;1.70;;
13311;SDS011;34033;48.672;9.376;2022-10-16T06:08:51;1.70;;;1.60;;
13311;SDS011;34033;48.672;9.376;2022-10-16T06:11:27;1.60;;;1.50;;
13311;SDS011;34033;48.672;9.376;2022-10-16T06:13:55;2.23;;;1.50;;
13311;SDS011;34033;48.672;9.376;2022-10-16T06:16:21;2.30;;;2.00;;
13311;SDS011;34033;48.672;9.376;2022-10-16T06:18:47;2.70;;;2.50;;
13311;SDS011;34033;48.672;9.376;2022-10-16T06:21:19;3.30;;;2.40;;
13311;SDS011;34033;48.672;9.376;2022-10-16T06:23:46;2.50;;;1.90;;
13311;SDS011;34033;48.672;9.376;2022-10-16T06:26:14;2.37;;;1.90;;
13311;SDS011;34033;48.672;9.376;2022-10-16T06:28:41;2.00;;;1.80;;
13311;SDS011;34033;48.672;9.376;2022-10-16T06:31:08;2.90;;;1.80;;
13311;SDS011;34033;48.672;9.376;2022-10-16T06:33:34;3.13;;;2.00;;
13311;SDS011;34033;48.672;9.376;2022-10-16T06:36:04;1.70;;;1.60;;
13311;SDS011;34033;48.672;9.376;2022-10-16T06:38:35;1.83;;;1.70;;
13311;SDS011;34033;48.672;9.376;2022-10-16T06:41:00;3.03;;;1.87;;
13311;SDS011;34033;48.672;9.376;2022-10-16T06:43:28;1.87;;;1.63;;
13311;SDS011;34033;48.672;9.376;2022-10-16T06:45:57;1.67;;;1.57;;
13311;SDS011;34033;48.672;9.376;2022-10-16T06:48:23;4.60;;;1.97;;
13311;SDS011;34033;48.672;9.376;2022-10-16T06:53:28;2.10;;;1.90;;
13311;SDS011;34033;48.672;9.376;2022-10-16T06:55:55;2.07;;;1.80;;
13311;SDS011;34033;48.672;9.376;2022-10-16T06:58:21;2.97;;;1.90;;
13311;SDS011;34033;48.672;9.376;2022-10-16T07:00:46;2.00;;;1.90;;
13311;SDS011;34033;48.672;9.376;2022-10-16T07:03:12;2.33;;;2.13;;
13311;SDS011;34033;48.672;9.376;2022-10-16T07:05:38;3.90;;;2.07;;
13311;SDS011;34033;48.672;9.376;2022-10-16T07:08:05;1.77;;;1.67;;
13311;SDS011;34033;48.672;9.376;2022-10-16T07:10:30;1.70;;;1.60;;
13311;SDS011;34033;48.672;9.376;2022-10-16T07:12:56;1.90;;;1.80;;
13311;SDS011;34033;48.672;9.376;2022-10-16T07:15:22;2.60;;;2.10;;
13311;SDS011;34033;48.672;9.376;2022-10-16T07:17:47;2.00;;;1.90;;
13311;SDS011;34033;48.672;9.376;2022-10-16T07:20:13;2.57;;;2.03;;
13311;SDS011;34033;48.672;9.376;2022-10-16T07:22:38;3.47;;;1.90;;
13311;SDS011;34033;48.672;9.376;2022-10-16T07:25:03;1.80;;;1.60;;
13311;SDS011;34033;48.672;9.376;2022-10-16T07:27:29;1.97;;;1.80;;
13311;SDS011;34033;48.672;9.376;2022-10-16T07:29:54;1.70;;;1.60;;
13311;SDS011;34033;48.672;9.376;2022-10-16T07:32:20;2.37;;;2.27;;
13311;SDS011;34033;48.672;9.376;2022-10-16T07:34:45;3.63;;;1.80;;
13311;SDS011;34033;48.672;9.376;2022-10-16T07:37:10;2.17;;;1.83;;
13311;SDS011;34033;48.672;9.376;2022-10-16T07:39:36;4.43;;;2.07;;
13311;SDS011;34033;48.672;9.376;2022-10-16T07:42:01;1.70;;;1.60;;
13311;SDS011;34033;48.672;9.376;2022-10-16T07:44:27;1.60;;;1.50;;
13311;SDS011;34033;48.672;9.376;2022-10-16T07:46:52;2.63;;;1.80;;
13311;SDS011;34033;48.672;9.376;2022-10-16T07:49:17;1.60;;;1.50;;
13311;SDS011;34033;48.672;9.376;2022-10-16T07:51:43;4.97;;;1.70;;
13311;SDS011;34033;48.672;9.376;2022-10-16T07:54:11;2.03;;;1.80;;
13311;SDS011;34033;48.672;9.376;2022-10-16T07:56:37;2.90;;;1.53;;
13311;SDS011;34033;48.672;9.376;2022-10-16T07:59:02;1.90;;;1.80;;
13311;SDS011;34033;48.672;9.376;2022-10-16T08:01:27;1.67;;;1.57;;
13311;SDS011;34033;48.672;9.376;2022-10-16T08:03:53;2.97;;;2.00;;
13311;SDS011;34033;48.672;9.376;2022-10-16T08:06:18;2.73;;;2.20;;
13311;SDS011;34033;48.672;9.376;2022-10-16T08:08:45;2.50;;;2.10;;
13311;SDS011;34033;48.672;9.376;2022-10-16T08:11:10;2.60;;;2.40;;
13311;SDS011;34033;48.672;9.376;2022-10-16T08:13:36;2.63;;;2.20;;
13311;SDS011;34033;48.672;9.376;2022-10-16T08:16:02;3.30;;;2.30;;
13311;SDS011;34033;48.672;9.376;2022-10-16T08:18:32;2.07;;;1.90;;
13311;SDS011;34033;48.672;9.376;2022-10-16T08:20:58;2.80;;;2.53;;
13311;SDS011;34033;48.672;9.376;2022-10-16T08:23:25;3.53;;;2.17;;
13311;SDS011;34033;48.672;9.376;2022-10-16T08:25:55;2.73;;;2.20;;
13311;SDS011;34033;48.672;9.376;2022-10-16T08:28:21;3.53;;;1.90;;
13311;SDS011;34033;48.672;9.376;2022-10-16T08:30:47;2.33;;;2.13;;
13311;SDS011;34033;48.672;9.376;2022-10-16T08:33:12;2.57;;;2.03;;
13311;SDS011;34033;48.672;9.376;2022-10-16T08:35:38;3.13;;;1.90;;
13311;SDS011;34033;48.672;9.376;2022-10-16T08:38:04;2.07;;;1.87;;
13311;SDS011;34033;48.672;9.376;2022-10-16T08:40:31;1.80;;;1.70;;
13311;SDS011;34033;48.672;9.376;2022-10-16T08:48:45;1.90;;;1.63;;
13311;SDS011;34033;48.672;9.376;2022-10-16T08:51:18;3.33;;;1.67;;
13311;SDS011;34033;48.672;9.376;2022-10-16T08:56:23;1.90;;;1.70;;
13311;SDS011;34033;48.672;9.376;2022-10-16T08:58:49;1.43;;;1.33;;
13311;SDS011;34033;48.672;9.376;2022-10-16T09:01:17;2.00;;;1.23;;
13311;SDS011;34033;48.672;9.376;2022-10-16T09:09:00;1.30;;;1.20;;
13311;SDS011;34033;48.672;9.376;2022-10-16T09:19:47;3.17;;;1.13;;
13311;SDS011;34033;48.672;9.376;2022-10-16T09:22:21;3.07;;;1.50;;
13311;SDS011;34033;48.672;9.376;2022-10-16T09:24:53;1.93;;;1.10;;
13311;SDS011;34033;48.672;9.376;2022-10-16T09:27:19;1.50;;;1.40;;
13311;SDS011;34033;48.672;9.376;2022-10-16T09:29:45;1.07;;;1.07;;
13311;SDS011;34033;48.672;9.376;2022-10-16T09:32:14;1.37;;;1.30;;
13311;SDS011;34033;48.672;9.376;2022-10-16T09:34:52;3.57;;;1.37;;
13311;SDS011;34033;48.672;9.376;2022-10-16T09:37:21;1.40;;;1.30;;
13311;SDS011;34033;48.672;9.376;2022-10-16T09:39:50;4.20;;;1.33;;
13311;SDS011;34033;48.672;9.376;2022-10-16T09:42:18;1.30;;;1.30;;
13311;SDS011;34033;48.672;9.376;2022-10-16T09:44:52;1.30;;;1.20;;
13311;SDS011;34033;48.672;9.376;2022-10-16T09:47:22;1.70;;;1.60;;
13311;SDS011;34033;48.672;9.376;2022-10-16T09:49:51;1.50;;;1.40;;
13311;SDS011;34033;48.672;9.376;2022-10-16T09:52:29;1.13;;;1.10;;
13311;SDS011;34033;48.672;9.376;2022-10-16T09:54:57;1.50;;;1.40;;
13311;SDS011;34033;48.672;9.376;2022-10-16T09:57:23;2.30;;;1.50;;
13311;SDS011;34033;48.672;9.376;2022-10-16T09:59:50;2.03;;;1.20;;
13311;SDS011;34033;48.672;9.376;2022-10-16T10:02:18;1.17;;;1.17;;
13311;SDS011;34033;48.672;9.376;2022-10-16T10:04:51;1.13;;;1.13;;
13311;SDS011;34033;48.672;9.376;2022-10-16T10:07:26;1.10;;;1.10;;
13311;SDS011;34033;48.672;9.376;2022-10-16T10:09:54;1.57;;;1.40;;
13311;SDS011;34033;48.672;9.376;2022-10-16T10:12:23;3.87;;;1.50;;
13311;SDS011;34033;48.672;9.376;2022-10-16T10:14:50;1.43;;;1.30;;
13311;SDS011;34033;48.672;9.376;2022-10-16T10:17:19;1.57;;;1.47;;
13311;SDS011;34033;48.672;9.376;2022-10-16T10:27:40;1.27;;;1.27;;
13311;SDS011;34033;48.672;9.376;2022-10-16T10:51:44;1.30;;;1.20;;
13311;SDS011;34033;48.672;9.376;2022-10-16T10:54:33;1.60;;;1.30;;
13311;SDS011;34033;48.672;9.376;2022-10-16T10:57:07;1.33;;;1.23;;
13311;SDS011;34033;48.672;9.376;2022-10-16T10:59:46;1.20;;;1.20;;
13311;SDS011;34033;48.672;9.376;2022-10-16T11:02:38;1.23;;;1.17;;
13311;SDS011;34033;48.672;9.376;2022-10-16T11:08:11;1.63;;;1.13;;
13311;SDS011;34033;48.672;9.376;2022-10-16T11:13:16;1.00;;;1.00;;
13311;SDS011;34033;48.672;9.376;2022-10-16T11:15:48;0.90;;;0.90;;
13311;SDS011;34033;48.672;9.376;2022-10-16T11:18:30;1.20;;;1.20;;
13311;SDS011;34033;48.672;9.376;2022-10-16T11:21:08;1.90;;;1.27;;
13311;SDS011;34033;48.672;9.376;2022-10-16T11:27:01;1.63;;;1.20;;
13311;SDS011;34033;48.672;9.376;2022-10-16T11:29:32;1.20;;;1.20;;
13311;SDS011;34033;48.672;9.376;2022-10-16T11:32:01;1.13;;;1.13;;
13311;SDS011;34033;48.672;9.376;2022-10-16T11:34:41;4.00;;;1.20;;
13311;SDS011;34033;48.672;9.376;2022-10-16T11:37:23;1.40;;;1.30;;
13311;SDS011;34033;48.672;9.376;2022-10-16T11:39:52;1.07;;;1.07;;
13311;SDS011;34033;48.672;9.376;2022-10-16T11:42:26;1.10;;;1.10;;
13311;SDS011;34033;48.672;9.376;2022-10-16T11:45:03;1.03;;;1.03;;
13311;SDS011;34033;48.672;9.376;2022-10-16T11:50:02;1.07;;;1.07;;
13311;SDS011;34033;48.672;9.376;2022-10-16T11:55:24;0.90;;;0.90;;
13311;SDS011;34033;48.672;9.376;2022-10-16T11:58:04;2.20;;;1.10;;
13311;SDS011;34033;48.672;9.376;2022-10-16T12:00:41;0.90;;;0.90;;
13311;SDS011;34033;48.672;9.376;2022-10-16T12:03:25;1.00;;;1.00;;
13311;SDS011;34033;48.672;9.376;2022-10-16T12:08:45;0.87;;;0.87;;
13311;SDS011;34033;48.672;9.376;2022-10-16T12:13:45;0.80;;;0.80;;
13311;SDS011;34033;48.672;9.376;2022-10-16T12:18:39;1.27;;;0.90;;
13311;SDS011;34033;48.672;9.376;2022-10-16T12:21:09;0.80;;;0.80;;
13311;SDS011;34033;48.672;9.376;2022-10-16T12:23:48;1.00;;;1.00;;
13311;SDS011;34033;48.672;9.376;2022-10-16T12:26:23;1.00;;;1.00;;
13311;SDS011;34033;48.672;9.376;2022-10-16T12:28:50;0.73;;;0.73;;
13311;SDS011;34033;48.672;9.376;2022-10-16T12:31:16;0.90;;;0.90;;
13311;SDS011;34033;48.672;9.376;2022-10-16T12:36:31;2.40;;;1.00;;
13311;SDS011;34033;48.672;9.376;2022-10-16T12:38:58;0.90;;;0.90;;
13311;SDS011;34033;48.672;9.376;2022-10-16T12:41:26;1.00;;;1.00;;
13311;SDS011;34033;48.672;9.376;2022-10-16T12:43:53;0.80;;;0.80;;
13311;SDS011;34033;48.672;9.376;2022-10-16T12:48:44;1.00;;;1.00;;
13311;SDS011;34033;48.672;9.376;2022-10-16T12:57:53;2.40;;;0.90;;
13311;SDS011;34033;48.672;9.376;2022-10-16T13:27:00;2.00;;;1.00;;
13311;SDS011;34033;48.672;9.376;2022-10-16T13:29:32;0.80;;;0.80;;
13311;SDS011;34033;48.672;9.376;2022-10-16T13:31:59;0.90;;;0.90;;
13311;SDS011;34033;48.672;9.376;2022-10-16T13:34:26;0.70;;;0.70;;
13311;SDS011;34033;48.672;9.376;2022-10-16T13:36:53;1.13;;;1.10;;
13311;SDS011;34033;48.672;9.376;2022-10-16T13:42:04;1.10;;;1.00;;
13311;SDS011;34033;48.672;9.376;2022-10-16T13:44:44;0.87;;;0.87;;
13311;SDS011;34033;48.672;9.376;2022-10-16T13:47:26;3.07;;;0.93;;
13311;SDS011;34033;48.672;9.376;2022-10-16T13:50:04;1.10;;;1.10;;
13311;SDS011;34033;48.672;9.376;2022-10-16T13:52:40;1.00;;;1.00;;
13311;SDS011;34033;48.672;9.376;2022-10-16T13:55:24;1.10;;;0.90;;
13311;SDS011;34033;48.672;9.376;2022-10-16T13:57:49;1.37;;;1.00;;
13311;SDS011;34033;48.672;9.376;2022-10-16T14:02:52;1.53;;;1.00;;
13311;SDS011;34033;48.672;9.376;2022-10-16T14:05:23;2.00;;;1.20;;
13311;SDS011;34033;48.672;9.376;2022-10-16T14:07:49;1.00;;;1.00;;
13311;SDS011;34033;48.672;9.376;2022-10-16T14:10:24;1.17;;;1.00;;
13311;SDS011;34033;48.672;9.376;2022-10-16T14:12:56;1.00;;;1.00;;
13311;SDS011;34033;48.672;9.376;2022-10-16T14:15:26;1.00;;;1.00;;
13311;SDS011;34033;48.672;9.376;2022-10-16T14:17:51;1.00;;;0.90;;
13311;SDS011;34033;48.672;9.376;2022-10-16T14:20:18;0.90;;;0.90;;
13311;SDS011;34033;48.672;9.376;2022-10-16T14:22:57;1.10;;;1.10;;
13311;SDS011;34033;48.672;9.376;2022-10-16T14:25:28;1.20;;;1.10;;
13311;SDS011;34033;48.672;9.376;2022-10-16T14:27:57;1.03;;;1.00;;
13311;SDS011;34033;48.672;9.376;2022-10-16T14:30:23;1.07;;;1.07;;
13311;SDS011;34033;48.672;9.376;2022-10-16T14:35:28;2.23;;;1.20;;
13311;SDS011;34033;48.672;9.376;2022-10-16T14:37:58;2.50;;;1.30;;
13311;SDS011;34033;48.672;9.376;2022-10-16T14:40:27;1.03;;;1.03;;
13311;SDS011;34033;48.672;9.376;2022-10-16T14:42:57;1.00;;;1.00;;
13311;SDS011;34033;48.672;9.376;2022-10-16T14:45:24;1.00;;;1.00;;
13311;SDS011;34033;48.672;9.376;2022-10-16T14:47:53;1.53;;;1.00;;
13311;SDS011;34033;48.672;9.376;2022-10-16T14:50:22;2.30;;;1.00;;
13311;SDS011;34033;48.672;9.376;2022-10-16T14:52:48;1.30;;;1.20;;
13311;SDS011;34033;48.672;9.376;2022-10-16T14:55:13;1.23;;;1.23;;
13311;SDS011;34033;48.672;9.376;2022-10-16T14:57:40;1.00;;;1.00;;
13311;SDS011;34033;48.672;9.376;2022-10-16T15:02:42;1.30;;;1.20;;
13311;SDS011;34033;48.672;9.376;2022-10-16T15:07:40;1.30;;;1.20;;
13311;SDS011;34033;48.672;9.376;2022-10-16T15:10:05;1.20;;;1.10;;
13311;SDS011;34033;48.672;9.376;2022-10-16T15:12:31;2.60;;;1.00;;
13311;SDS011;34033;48.672;9.376;2022-10-16T15:14:56;1.03;;;1.03;;
13311;SDS011;34033;48.672;9.376;2022-10-16T15:17:21;1.30;;;1.30;;
13311;SDS011;34033;48.672;9.376;2022-10-16T15:19:47;1.70;;;1.40;;
13311;SDS011;34033;48.672;9.376;2022-10-16T15:22:12;1.00;;;1.00;;
13311;SDS011;34033;48.672;9.376;2022-10-16T15:24:37;1.13;;;1.10;;
13311;SDS011;34033;48.672;9.376;2022-10-16T15:27:03;1.93;;;1.07;;
13311;SDS011;34033;48.672;9.376;2022-10-16T15:29:28;1.30;;;1.20;;
13311;SDS011;34033;48.672;9.376;2022-10-16T15:31:53;1.60;;;1.30;;
13311;SDS011;34033;48.672;9.376;2022-10-16T15:34:18;1.60;;;1.50;;
13311;SDS011;34033;48.672;9.376;2022-10-16T15:36:44;1.43;;;1.40;;
13311;SDS011;34033;48.672;9.376;2022-10-16T15:39:12;1.63;;;1.53;;
13311;SDS011;34033;48.672;9.376;2022-10-16T15:41:39;4.27;;;2.20;;
13311;SDS011;34033;48.672;9.376;2022-10-16T15:44:04;5.17;;;2.13;;
13311;SDS011;34033;48.672;9.376;2022-10-16T15:46:29;2.00;;;1.83;;
13311;SDS011;34033;48.672;9.376;2022-10-16T15:48:56;1.90;;;1.80;;
13311;SDS011;34033;48.672;9.376;2022-10-16T15:51:23;2.70;;;2.50;;
13311;SDS011;34033;48.672;9.376;2022-10-16T15:53:48;5.60;;;2.20;;
13311;SDS011;34033;48.672;9.376;2022-10-16T15:56:15;2.60;;;2.10;;
13311;SDS011;34033;48.672;9.376;2022-10-16T15:58:42;1.90;;;1.80;;
13311;SDS011;34033;48.672;9.376;2022-10-16T16:01:08;2.20;;;2.00;;
13311;SDS011;34033;48.672;9.376;2022-10-16T16:03:35;2.23;;;1.60;;
13311;SDS011;34033;48.672;9.376;2022-10-16T16:06:05;2.43;;;1.70;;
13311;SDS011;34033;48.672;9.376;2022-10-16T16:08:35;1.87;;;1.70;;
13311;SDS011;34033;48.672;9.376;2022-10-16T16:11:02;1.80;;;1.70;;
13311;SDS011;34033;48.672;9.376;2022-10-16T16:13:30;1.43;;;1.33;;
13311;SDS011;34033;48.672;9.376;2022-10-16T16:15:56;1.57;;;1.37;;
13311;SDS011;34033;48.672;9.376;2022-10-16T16:18:21;2.70;;;1.43;;
13311;SDS011;34033;48.672;9.376;2022-10-16T16:20:48;1.70;;;1.60;;
13311;SDS011;34033;48.672;9.376;2022-10-16T16:23:14;1.80;;;1.70;;
13311;SDS011;34033;48.672;9.376;2022-10-16T16:25:40;2.00;;;1.80;;
13311;SDS011;34033;48.672;9.376;2022-10-16T16:28:05;2.10;;;2.00;;
13311;SDS011;34033;48.672;9.376;2022-10-16T16:30:32;2.57;;;2.23;;
13311;SDS011;34033;48.672;9.376;2022-10-16T16:32:57;2.83;;;2.13;;
13311;SDS011;34033;48.672;9.376;2022-10-16T16:35:22;2.47;;;2.27;;
13311;SDS011;34033;48.672;9.376;2022-10-16T16:37:48;3.43;;;2.80;;
13311;SDS011;34033;48.672;9.376;2022-10-16T16:40:13;3.90;;;3.00;;
13311;SDS011;34033;48.672;9.376;2022-10-16T16:42:38;4.17;;;3.30;;
13311;SDS011;34033;48.672;9.376;2022-10-16T16:45:04;2.53;;;2.10;;
13311;SDS011;34033;48.672;9.376;2022-10-16T16:47:30;2.43;;;2.23;;
13311;SDS011;34033;48.672;9.376;2022-10-16T16:49:55;3.57;;;2.57;;
13311;SDS011;34033;48.672;9.376;2022-10-16T16:52:21;3.07;;;1.83;;
13311;SDS011;34033;48.672;9.376;2022-10-16T16:54:47;2.00;;;1.80;;
13311;SDS011;34033;48.672;9.376;2022-10-16T16:57:17;2.03;;;1.83;;
13311;SDS011;34033;48.672;9.376;2022-10-16T16:59:43;2.37;;;2.17;;
13311;SDS011;34033;48.672;9.376;2022-10-16T17:02:08;5.30;;;2.90;;
13311;SDS011;34033;48.672;9.376;2022-10-16T17:04:34;2.90;;;2.53;;
13311;SDS011;34033;48.672;9.376;2022-10-16T17:06:59;3.53;;;2.93;;
13311;SDS011;34033;48.672;9.376;2022-10-16T17:09:25;3.30;;;2.77;;
13311;SDS011;34033;48.672;9.376;2022-10-16T17:11:50;8.20;;;3.13;;
13311;SDS011;34033;48.672;9.376;2022-10-16T17:14:15;2.17;;;2.07;;
13311;SDS011;34033;48.672;9.376;2022-10-16T17:16:41;2.77;;;2.43;;